createdAt,value
2022-08-10T00:00:23.542Z,5.63
2022-08-10T00:03:10.018Z,5.23
2022-08-10T00:05:56.828Z,6.10
2022-08-10T00:08:43.240Z,5.80
2022-08-10T00:11:29.111Z,5.20
2022-08-10T00:14:14.979Z,6.00
2022-08-10T00:17:00.893Z,5.97
2022-08-10T00:20:02.942Z,5.90
2022-08-10T00:22:57.631Z,5.97
2022-08-10T00:25:44.069Z,6.20
2022-08-10T00:28:30.080Z,6.43
2022-08-10T00:31:16.022Z,6.00
2022-08-10T00:34:02.450Z,6.37
2022-08-10T00:36:48.149Z,5.80
2022-08-10T00:39:35.896Z,6.20
2022-08-10T00:42:22.458Z,6.47
2022-08-10T00:45:08.394Z,5.93
2022-08-10T00:47:55.791Z,6.03
2022-08-10T00:50:41.376Z,7.50
2022-08-10T00:53:28.434Z,5.83
2022-08-10T00:57:12.635Z,6.80
2022-08-10T00:59:22.321Z,5.97
2022-08-10T01:02:11.794Z,5.83
2022-08-10T01:05:01.712Z,10.97
2022-08-10T01:08:01.998Z,6.10
2022-08-10T01:11:00.157Z,5.83
2022-08-10T01:13:55.275Z,6.63
2022-08-10T01:17:19.570Z,6.83
2022-08-10T01:20:27.272Z,5.90
2022-08-10T01:23:41.288Z,6.53
2022-08-10T01:26:40.803Z,5.53
2022-08-10T01:29:27.094Z,6.50
2022-08-10T01:32:14.501Z,5.87
2022-08-10T01:35:07.073Z,6.10
2022-08-10T01:38:12.699Z,6.60
2022-08-10T01:41:04.904Z,11.23
2022-08-10T01:43:55.085Z,6.00
2022-08-10T01:46:42.365Z,6.63
2022-08-10T01:49:29.469Z,5.97
2022-08-10T01:52:18.228Z,5.93
2022-08-10T01:55:04.783Z,5.93
2022-08-10T01:57:51.563Z,6.03
2022-08-10T02:00:40.101Z,6.50
2022-08-10T02:03:26.582Z,5.93
2022-08-10T02:06:13.143Z,5.60
2022-08-10T02:09:06.657Z,5.40
2022-08-10T02:12:06.827Z,5.83
2022-08-10T02:14:56.329Z,5.60
2022-08-10T02:17:59.003Z,6.90
2022-08-10T02:20:48.628Z,6.07
2022-08-10T02:23:36.409Z,5.90
2022-08-10T02:26:22.942Z,5.90
2022-08-10T02:29:09.869Z,6.00
2022-08-10T02:31:56.357Z,5.50
2022-08-10T02:34:42.973Z,6.10
2022-08-10T02:37:30.373Z,6.20
2022-08-10T02:45:12.620Z,6.13
2022-08-10T02:45:29.797Z,6.10
2022-08-10T02:46:55.336Z,6.90
2022-08-10T02:49:45.787Z,5.20
2022-08-10T02:52:36.230Z,5.90
2022-08-10T02:55:32.820Z,6.10
2022-08-10T02:58:37.534Z,6.03
2022-08-10T03:01:24.329Z,5.53
2022-08-10T03:04:15.997Z,5.83
2022-08-10T03:07:04.391Z,5.70
2022-08-10T03:09:52.737Z,5.93
2022-08-10T03:12:39.809Z,9.70
2022-08-10T03:15:25.742Z,13.60
2022-08-10T03:18:12.488Z,18.27
2022-08-10T03:20:59.436Z,21.20
2022-08-10T03:23:48.144Z,34.43
2022-08-10T03:26:34.561Z,41.33
2022-08-10T03:29:21.189Z,47.03
2022-08-10T03:32:07.968Z,41.73
2022-08-10T03:34:53.842Z,36.93
2022-08-10T03:37:39.823Z,36.43
2022-08-10T03:40:46.439Z,28.70
2022-08-10T03:43:32.915Z,21.03
2022-08-10T03:46:20.557Z,18.40
2022-08-10T03:49:07.448Z,14.10
2022-08-10T03:51:53.368Z,11.47
2022-08-10T03:54:39.475Z,10.00
2022-08-10T03:57:26.501Z,12.50
2022-08-10T04:00:12.982Z,7.20
2022-08-10T04:02:59.562Z,7.70
2022-08-10T04:05:46.067Z,8.30
2022-08-10T04:08:32.260Z,6.80
2022-08-10T04:11:17.990Z,13.23
2022-08-10T04:14:06.867Z,9.03
2022-08-10T04:16:52.813Z,8.10
2022-08-10T04:19:42.548Z,7.30
2022-08-10T04:22:29.380Z,6.90
2022-08-10T04:25:15.552Z,6.20
2022-08-10T04:28:01.615Z,7.37
2022-08-10T04:30:50.822Z,6.17
2022-08-10T04:33:38.192Z,8.03
2022-08-10T04:36:24.739Z,6.73
2022-08-10T04:39:11.419Z,9.27
2022-08-10T04:41:57.655Z,6.90
2022-08-10T04:44:43.734Z,7.30
2022-08-10T04:48:00.485Z,6.53
2022-08-10T04:50:37.713Z,6.80
2022-08-10T04:53:23.969Z,6.40
2022-08-10T04:56:10.110Z,6.27
2022-08-10T04:58:55.748Z,7.80
2022-08-10T05:02:27.882Z,7.03
2022-08-10T05:04:47.485Z,6.20
2022-08-10T05:07:37.468Z,7.47
2022-08-10T05:10:39.951Z,6.80
2022-08-10T05:13:25.613Z,6.53
2022-08-10T05:16:11.332Z,6.03
2022-08-10T05:19:16.937Z,7.27
2022-08-10T05:22:05.090Z,7.30
2022-08-10T05:24:50.997Z,6.63
2022-08-10T05:27:37.318Z,7.00
2022-08-10T05:30:23.521Z,6.60
2022-08-10T05:33:09.380Z,6.37
2022-08-10T05:35:57.782Z,6.63
2022-08-10T05:38:44.880Z,6.73
2022-08-10T05:41:31.753Z,30.27
2022-08-10T05:44:17.494Z,19.20
2022-08-10T05:47:03.143Z,7.67
2022-08-10T05:49:49.566Z,10.03
2022-08-10T05:52:35.808Z,8.80
2022-08-10T05:55:22.940Z,7.00
2022-08-10T05:58:09.099Z,6.27
2022-08-10T06:00:56.703Z,6.57
2022-08-10T06:03:53.460Z,7.10
2022-08-10T06:06:40.018Z,5.97
2022-08-10T06:09:26.248Z,5.93
2022-08-10T06:12:26.180Z,6.90
2022-08-10T06:15:22.068Z,6.53
2022-08-10T06:18:23.380Z,6.40
2022-08-10T06:21:13.161Z,7.17
2022-08-10T06:23:59.827Z,7.33
2022-08-10T06:26:45.517Z,6.80
2022-08-10T06:29:32.981Z,6.70
2022-08-10T06:32:25.350Z,6.83
2022-08-10T06:35:11.639Z,6.77
2022-08-10T06:38:01.768Z,6.60
2022-08-10T06:40:49.034Z,7.07
2022-08-10T06:43:37.249Z,7.00
2022-08-10T06:46:23.981Z,6.40
2022-08-10T06:49:10.958Z,6.67
2022-08-10T06:51:57.760Z,6.47
2022-08-10T06:54:44.250Z,6.67
2022-08-10T06:57:32.115Z,6.83
2022-08-10T07:00:20.400Z,6.80
2022-08-10T07:03:08.583Z,6.03
2022-08-10T07:05:55.145Z,8.20
2022-08-10T07:08:42.166Z,6.83
2022-08-10T07:11:28.946Z,6.83
2022-08-10T07:14:18.588Z,5.90
2022-08-10T07:17:04.589Z,6.87
2022-08-10T07:19:52.824Z,7.60
2022-08-10T07:23:22.883Z,6.60
2022-08-10T07:25:49.311Z,10.30
2022-08-10T07:28:37.426Z,7.37
2022-08-10T07:31:31.080Z,6.43
2022-08-10T07:34:33.095Z,6.43
2022-08-10T07:37:23.387Z,6.83
2022-08-10T07:40:09.614Z,8.37
2022-08-10T07:42:58.367Z,6.23
2022-08-10T07:45:44.688Z,8.20
2022-08-10T07:48:33.132Z,8.70
2022-08-10T07:51:20.197Z,6.25
2022-08-10T07:54:08.588Z,7.50
2022-08-10T07:56:56.258Z,6.63
2022-08-10T07:59:44.785Z,5.87
2022-08-10T08:02:40.139Z,6.67
2022-08-10T08:05:54.890Z,7.13
2022-08-10T08:08:34.521Z,6.33
2022-08-10T08:11:26.083Z,6.43
2022-08-10T08:14:14.543Z,7.40
2022-08-10T08:17:01.649Z,6.80
2022-08-10T08:19:55.162Z,5.90
2022-08-10T08:24:10.493Z,6.03
2022-08-10T08:25:48.198Z,6.27
2022-08-10T08:28:35.539Z,6.20
2022-08-10T08:31:23.217Z,6.50
2022-08-10T08:34:09.420Z,5.90
2022-08-10T08:36:59.359Z,8.30
2022-08-10T08:39:47.347Z,5.70
2022-08-10T08:42:37.370Z,5.73
2022-08-10T08:45:23.852Z,9.70
2022-08-10T08:48:29.782Z,7.87
2022-08-10T08:52:07.220Z,7.50
2022-08-10T08:54:43.539Z,5.90
2022-08-10T08:57:49.583Z,7.73
2022-08-10T09:00:55.762Z,6.80
2022-08-10T09:04:21.037Z,5.90
2022-08-10T09:07:59.947Z,6.20
2022-08-10T09:10:52.843Z,5.57
2022-08-10T09:13:47.714Z,5.70
2022-08-10T09:16:44.824Z,6.33
2022-08-10T09:19:36.632Z,7.67
2022-08-10T09:22:41.188Z,5.97
2022-08-10T09:25:30.954Z,5.90
2022-08-10T09:28:22.130Z,6.50
2022-08-10T09:31:22.325Z,5.80
2022-08-10T09:36:25.145Z,5.87
2022-08-10T09:37:39.862Z,5.70
2022-08-10T09:41:00.162Z,7.53
2022-08-10T09:44:00.227Z,5.43
2022-08-10T09:47:16.244Z,5.40
2022-08-10T09:50:05.267Z,9.97
2022-08-10T09:52:59.242Z,7.63
2022-08-10T09:56:17.717Z,7.20
2022-08-10T09:59:47.272Z,5.17
2022-08-10T10:02:22.509Z,12.40
2022-08-10T10:05:12.022Z,5.87
2022-08-10T10:08:14.294Z,5.70
2022-08-10T10:11:03.226Z,9.23
2022-08-10T10:14:02.545Z,5.30
2022-08-10T10:16:56.627Z,5.63
2022-08-10T10:19:57.906Z,5.00
2022-08-10T10:22:55.300Z,5.37
2022-08-10T10:26:04.973Z,8.07
2022-08-10T10:29:24.702Z,4.57
2022-08-10T10:32:09.648Z,6.83
2022-08-10T10:35:04.277Z,10.37
2022-08-10T10:38:02.560Z,6.90
2022-08-10T10:41:04.355Z,5.50
2022-08-10T10:43:59.858Z,4.97
2022-08-10T10:47:19.718Z,4.93
2022-08-10T10:50:15.225Z,5.67
2022-08-10T10:53:23.281Z,4.33
2022-08-10T10:56:31.685Z,3.87
2022-08-10T10:59:55.230Z,4.50
2022-08-10T11:02:40.554Z,4.63
2022-08-10T11:05:46.587Z,4.93
2022-08-10T11:08:37.015Z,3.90
2022-08-10T11:12:00.499Z,10.90
2022-08-10T11:14:42.397Z,4.40
2022-08-10T11:17:31.498Z,4.60
2022-08-10T11:20:27.699Z,4.33
2022-08-10T11:23:17.686Z,6.77
2022-08-10T11:26:16.400Z,4.50
2022-08-10T11:29:11.210Z,4.47
2022-08-10T11:32:00.168Z,4.13
2022-08-10T11:35:19.615Z,4.20
2022-08-10T11:38:34.315Z,8.37
2022-08-10T11:42:07.206Z,4.97
2022-08-10T11:44:50.173Z,5.90
2022-08-10T11:47:37.072Z,4.20
2022-08-10T11:50:35.433Z,4.90
2022-08-10T11:53:28.473Z,4.13
2022-08-10T11:56:28.175Z,5.03
2022-08-10T11:59:34.227Z,4.27
2022-08-10T12:02:21.295Z,4.50
2022-08-10T12:05:09.053Z,4.83
2022-08-10T12:10:02.056Z,5.13
2022-08-10T12:11:01.891Z,8.40
2022-08-10T12:14:20.941Z,4.70
2022-08-10T12:17:32.431Z,4.83
2022-08-10T12:20:27.400Z,5.60
2022-08-10T12:23:20.290Z,4.53
2022-08-10T12:26:27.181Z,5.53
2022-08-10T12:29:25.561Z,5.13
2022-08-10T12:32:38.490Z,4.37
2022-08-10T12:35:33.168Z,4.63
2022-08-10T12:38:24.507Z,4.33
2022-08-10T12:41:43.561Z,4.60
2022-08-10T12:44:41.198Z,4.20
2022-08-10T12:47:31.713Z,4.80
2022-08-10T12:50:32.948Z,4.40
2022-08-10T12:53:58.085Z,8.17
2022-08-10T12:56:59.383Z,4.10
2022-08-10T12:59:46.733Z,4.47
2022-08-10T13:02:34.414Z,4.77
2022-08-10T13:05:20.548Z,4.60
2022-08-10T13:08:28.132Z,4.57
2022-08-10T13:12:18.256Z,6.93
2022-08-10T13:14:32.680Z,4.00
2022-08-10T13:17:32.756Z,5.10
2022-08-10T13:20:31.658Z,4.33
2022-08-10T13:23:20.446Z,4.40
2022-08-10T13:26:07.578Z,4.70
2022-08-10T13:28:55.159Z,6.73
2022-08-10T13:32:09.163Z,7.30
2022-08-10T13:34:54.225Z,3.73
2022-08-10T13:37:43.530Z,4.13
2022-08-10T13:40:29.952Z,4.03
2022-08-10T13:43:16.586Z,3.93
2022-08-10T13:46:03.090Z,4.33
2022-08-10T13:48:48.951Z,4.30
2022-08-10T13:51:54.279Z,6.60
2022-08-10T13:54:42.996Z,4.83
2022-08-10T13:57:30.257Z,4.40
2022-08-10T14:00:34.812Z,4.37
2022-08-10T14:03:23.340Z,3.93
2022-08-10T14:06:17.214Z,4.90
2022-08-10T14:09:11.885Z,4.37
2022-08-10T14:11:58.307Z,4.53
2022-08-10T14:14:45.884Z,4.83
2022-08-10T14:17:44.701Z,4.13
2022-08-10T14:20:32.295Z,4.00
2022-08-10T14:23:18.477Z,4.67
2022-08-10T14:26:08.919Z,5.83
2022-08-10T14:29:03.649Z,4.97
2022-08-10T14:32:00.689Z,6.80
2022-08-10T14:36:16.785Z,7.07
2022-08-10T14:37:56.496Z,6.00
2022-08-10T14:40:46.541Z,4.03
2022-08-10T14:43:38.695Z,4.57
2022-08-10T14:46:27.353Z,4.53
2022-08-10T14:49:25.508Z,4.33
2022-08-10T14:52:14.191Z,4.47
2022-08-10T14:55:04.577Z,6.53
2022-08-10T14:58:20.294Z,5.90
2022-08-10T15:00:56.873Z,4.43
2022-08-10T15:03:58.974Z,4.63
2022-08-10T15:06:58.739Z,4.30
2022-08-10T15:10:00.618Z,5.40
2022-08-10T15:12:50.921Z,4.47
2022-08-10T15:15:55.998Z,5.00
2022-08-10T15:18:57.585Z,3.70
2022-08-10T15:21:45.687Z,4.60
2022-08-10T15:24:51.586Z,4.80
2022-08-10T15:27:53.586Z,4.17
2022-08-10T15:30:46.891Z,5.30
2022-08-10T15:34:04.287Z,4.20
2022-08-10T15:37:37.038Z,7.50
2022-08-10T15:40:24.210Z,4.97
2022-08-10T15:43:20.889Z,4.47
2022-08-10T15:46:22.079Z,4.57
2022-08-10T15:49:20.512Z,4.77
2022-08-10T15:52:12.206Z,4.60
2022-08-10T15:55:42.623Z,4.80
2022-08-10T15:58:37.490Z,7.43
2022-08-10T16:02:14.430Z,6.07
2022-08-10T16:05:00.085Z,4.10
2022-08-10T16:08:10.605Z,6.17
2022-08-10T16:11:07.336Z,5.90
2022-08-10T16:14:00.791Z,6.77
2022-08-10T16:16:51.368Z,6.40
2022-08-10T16:19:38.918Z,4.97
2022-08-10T16:22:35.960Z,5.00
2022-08-10T16:25:23.964Z,5.10
2022-08-10T16:28:34.689Z,5.03
2022-08-10T16:31:24.943Z,3.97
2022-08-10T16:34:14.090Z,4.77
2022-08-10T16:37:26.671Z,6.03
2022-08-10T16:40:33.441Z,4.67
2022-08-10T16:43:23.492Z,4.77
2022-08-10T16:46:11.883Z,5.33
2022-08-10T16:48:59.311Z,4.20
2022-08-10T16:51:48.947Z,5.30
2022-08-10T16:54:35.177Z,5.30
2022-08-10T16:57:23.788Z,4.97
2022-08-10T17:00:10.555Z,6.70
2022-08-10T17:03:01.532Z,7.50
2022-08-10T17:06:03.694Z,5.37
2022-08-10T17:08:55.808Z,5.00
2022-08-10T17:11:42.267Z,5.30
2022-08-10T17:14:29.434Z,5.50
2022-08-10T17:17:19.891Z,6.40
2022-08-10T17:20:30.396Z,5.50
2022-08-10T17:23:15.625Z,5.20
2022-08-10T17:26:03.811Z,6.80
2022-08-10T17:28:51.539Z,9.83
2022-08-10T17:31:54.963Z,7.40
2022-08-10T17:34:50.737Z,5.10
2022-08-10T17:37:45.610Z,6.40
2022-08-10T17:40:32.856Z,5.30
2022-08-10T17:43:58.483Z,5.07
2022-08-10T17:46:32.320Z,4.80
2022-08-10T17:49:20.699Z,5.23
2022-08-10T17:52:09.361Z,5.03
2022-08-10T17:55:01.847Z,5.40
2022-08-10T17:57:47.694Z,5.00
2022-08-10T18:00:54.074Z,5.57
2022-08-10T18:03:41.573Z,5.20
2022-08-10T18:06:29.216Z,5.33
2022-08-10T18:09:24.876Z,5.57
2022-08-10T18:12:14.512Z,6.10
2022-08-10T18:15:08.560Z,7.30
2022-08-10T18:18:08.105Z,7.20
2022-08-10T18:21:15.805Z,9.13
2022-08-10T18:24:04.136Z,8.23
2022-08-10T18:26:51.908Z,6.83
2022-08-10T18:29:39.379Z,7.93
2022-08-10T18:32:28.643Z,6.90
2022-08-10T18:35:15.211Z,7.87
2022-08-10T18:38:01.948Z,6.03
2022-08-10T18:40:54.031Z,7.37
2022-08-10T18:44:06.567Z,7.33
2022-08-10T18:46:56.265Z,8.10
2022-08-10T18:49:51.526Z,6.43
2022-08-10T18:52:39.238Z,7.27
2022-08-10T18:55:27.307Z,9.73
2022-08-10T18:58:33.892Z,7.23
2022-08-10T19:01:34.019Z,7.17
2022-08-10T19:04:44.679Z,7.83
2022-08-10T19:07:41.457Z,7.13
2022-08-10T19:10:28.723Z,7.23
2022-08-10T19:13:20.117Z,7.90
2022-08-10T19:16:27.238Z,7.00
2022-08-10T19:19:30.530Z,7.20
2022-08-10T19:22:22.014Z,6.73
2022-08-10T19:26:42.687Z,7.87
2022-08-10T19:28:33.607Z,7.10
2022-08-10T19:31:42.016Z,7.93
2022-08-10T19:34:45.580Z,7.80
2022-08-10T19:37:35.439Z,7.83
2022-08-10T19:40:43.468Z,10.63
2022-08-10T19:44:01.587Z,6.73
2022-08-10T19:47:06.645Z,7.33
2022-08-10T19:49:59.997Z,7.40
2022-08-10T19:52:59.819Z,6.93
2022-08-10T19:55:54.217Z,6.17
2022-08-10T19:58:48.991Z,6.70
2022-08-10T20:01:55.728Z,7.97
2022-08-10T20:04:44.986Z,6.40
2022-08-10T20:07:43.430Z,6.73
2022-08-10T20:10:35.566Z,6.43
2022-08-10T20:13:24.579Z,9.90
2022-08-10T20:16:19.312Z,7.77
2022-08-10T20:19:25.307Z,8.87
2022-08-10T20:22:35.950Z,7.07
2022-08-10T20:25:29.097Z,6.90
2022-08-10T20:28:27.402Z,7.27
2022-08-10T20:31:25.648Z,6.93
2022-08-10T20:34:17.108Z,7.07
2022-08-10T20:37:45.178Z,7.40
2022-08-10T20:40:37.746Z,7.50
2022-08-10T20:43:32.649Z,6.70
2022-08-10T20:46:27.715Z,6.13
2022-08-10T20:49:37.789Z,7.13
2022-08-10T20:52:26.279Z,10.60
2022-08-10T20:55:14.100Z,8.40
2022-08-10T20:58:12.380Z,7.30
2022-08-10T21:01:09.834Z,5.97
2022-08-10T21:04:01.985Z,7.30
2022-08-10T21:07:05.456Z,8.53
2022-08-10T21:10:03.867Z,5.97
2022-08-10T21:13:03.373Z,7.87
2022-08-10T21:15:55.584Z,7.40
2022-08-10T21:18:46.111Z,6.80
2022-08-10T21:21:41.367Z,6.93
2022-08-10T21:24:36.887Z,7.30
2022-08-10T21:27:41.532Z,7.57
2022-08-10T21:30:27.253Z,7.00
2022-08-10T21:33:20.991Z,6.50
2022-08-10T21:36:19.087Z,6.43
2022-08-10T21:39:11.874Z,11.03
2022-08-10T21:42:32.826Z,7.00
2022-08-10T21:45:59.518Z,7.20
2022-08-10T21:49:12.072Z,7.23
2022-08-10T21:52:33.777Z,6.53
2022-08-10T21:55:57.255Z,6.43
2022-08-10T21:59:28.693Z,6.20
2022-08-10T22:02:51.095Z,6.90
2022-08-10T22:05:58.720Z,6.53
2022-08-10T22:09:05.935Z,5.50
2022-08-10T22:16:05.346Z,7.03
2022-08-10T22:19:14.908Z,6.70
2022-08-10T22:22:28.462Z,7.57
2022-08-10T22:25:52.268Z,6.87
2022-08-10T22:29:05.116Z,6.60
2022-08-10T22:31:26.908Z,6.67
2022-08-10T22:32:29.022Z,6.40
2022-08-10T22:35:57.351Z,7.80
2022-08-10T22:40:07.700Z,8.20
2022-08-10T22:42:59.520Z,6.23
2022-08-10T22:46:15.039Z,6.73
2022-08-10T22:49:01.413Z,7.30
2022-08-10T22:51:50.798Z,7.77
2022-08-10T22:55:07.535Z,6.60
2022-08-10T22:58:12.340Z,7.20
2022-08-10T23:01:36.644Z,6.60
2022-08-10T23:04:27.647Z,8.83
2022-08-10T23:07:28.933Z,6.67
2022-08-10T23:10:16.401Z,7.20
2022-08-10T23:13:02.592Z,6.87
2022-08-10T23:16:28.478Z,7.17
2022-08-10T23:19:19.325Z,7.03
2022-08-10T23:22:06.390Z,7.07
2022-08-10T23:24:53.251Z,7.63
2022-08-10T23:27:40.453Z,7.80
2022-08-10T23:30:35.133Z,7.17
2022-08-10T23:33:37.630Z,7.70
2022-08-10T23:36:33.323Z,6.60
2022-08-10T23:39:27.778Z,7.10
2022-08-10T23:42:23.470Z,7.43
2022-08-10T23:45:16.504Z,7.13
2022-08-10T23:48:02.926Z,6.80
2022-08-10T23:50:59.452Z,6.70
2022-08-10T23:53:48.577Z,7.10
2022-08-10T23:56:39.119Z,6.87
2022-08-10T23:59:25.817Z,7.07
